createdAt,value
2023-03-06T00:00:36.151Z,9.719262
2023-03-06T00:01:36.153Z,9.719222
2023-03-06T00:02:36.120Z,9.719385
2023-03-06T00:03:36.174Z,9.719333
2023-03-06T00:04:36.101Z,9.719300
2023-03-06T00:05:36.118Z,9.719112
2023-03-06T00:06:36.081Z,9.719134
2023-03-06T00:07:36.070Z,9.718920
2023-03-06T00:08:36.058Z,9.718862
2023-03-06T00:09:36.112Z,9.719271
2023-03-06T00:10:36.043Z,9.719279
2023-03-06T00:11:36.041Z,9.719101
2023-03-06T00:12:36.026Z,9.719228
2023-03-06T00:13:36.019Z,9.719310
2023-03-06T00:14:36.047Z,9.719287
2023-03-06T00:15:36.022Z,9.719570
2023-03-06T00:16:36.027Z,9.719168
2023-03-06T00:17:35.990Z,9.719063
2023-03-06T00:18:35.967Z,9.719255
2023-03-06T00:19:35.973Z,9.719305
2023-03-06T00:20:35.955Z,9.719110
2023-03-06T00:21:35.936Z,9.719052
2023-03-06T00:22:35.928Z,9.719316
2023-03-06T00:23:35.940Z,9.719293
2023-03-06T00:24:35.907Z,9.719211
2023-03-06T00:25:35.908Z,9.719184
2023-03-06T00:26:35.889Z,9.719256
2023-03-06T00:27:35.885Z,9.719378
2023-03-06T00:28:35.933Z,9.719309
2023-03-06T00:29:35.866Z,9.719339
2023-03-06T00:30:35.855Z,9.719100
2023-03-06T00:31:35.850Z,9.719152
2023-03-06T00:32:35.889Z,9.719171
2023-03-06T00:33:35.832Z,9.719038
2023-03-06T00:34:35.825Z,9.719297
2023-03-06T00:35:35.840Z,9.718940
2023-03-06T00:36:35.821Z,9.719124
2023-03-06T00:37:35.775Z,9.718924
2023-03-06T00:38:35.764Z,9.719085
2023-03-06T00:39:35.771Z,9.719237
2023-03-06T00:40:35.745Z,9.719180
2023-03-06T00:41:35.763Z,9.719282
2023-03-06T00:42:35.746Z,9.719150
2023-03-06T00:43:35.720Z,9.719110
2023-03-06T00:44:35.711Z,9.719278
2023-03-06T00:45:35.756Z,9.719189
2023-03-06T00:46:35.702Z,9.719274
2023-03-06T00:47:35.694Z,9.719290
2023-03-06T00:48:35.666Z,9.719431
2023-03-06T00:49:35.690Z,9.719762
2023-03-06T00:50:35.657Z,9.719720
2023-03-06T00:51:35.634Z,9.719408
2023-03-06T00:52:35.667Z,9.719324
2023-03-06T00:53:35.619Z,9.719233
2023-03-06T00:54:35.614Z,9.719198
2023-03-06T00:55:35.600Z,9.719205
2023-03-06T00:56:35.590Z,9.719234
2023-03-06T00:57:35.624Z,9.719050
2023-03-06T00:58:35.601Z,9.719329
2023-03-06T00:59:35.585Z,9.719330
2023-03-06T01:00:35.636Z,9.719296
2023-03-06T01:01:35.546Z,9.719175
2023-03-06T01:02:35.596Z,9.719191
2023-03-06T01:03:35.561Z,9.719293
2023-03-06T01:04:35.521Z,9.718952
2023-03-06T01:05:35.499Z,9.718833
2023-03-06T01:06:35.471Z,9.718921
2023-03-06T01:07:35.498Z,9.718985
2023-03-06T01:08:35.466Z,9.719160
2023-03-06T01:09:35.486Z,9.719138
2023-03-06T01:10:35.436Z,9.719195
2023-03-06T01:11:36.447Z,9.719314
2023-03-06T01:12:35.433Z,9.719294
2023-03-06T01:13:35.403Z,9.719199
2023-03-06T01:14:35.420Z,9.719363
2023-03-06T01:15:35.410Z,9.719365
2023-03-06T01:16:35.439Z,9.719398
2023-03-06T01:17:35.393Z,9.719205
2023-03-06T01:18:35.398Z,9.719156
2023-03-06T01:19:35.362Z,9.718895
2023-03-06T01:20:35.351Z,9.718835
2023-03-06T01:21:35.345Z,9.719012
2023-03-06T01:23:07.235Z,9.719229
2023-03-06T01:23:35.331Z,9.719359
2023-03-06T01:24:35.315Z,9.719346
2023-03-06T01:25:35.302Z,9.719271
2023-03-06T01:26:35.322Z,9.719195
2023-03-06T01:27:35.286Z,9.719462
2023-03-06T01:28:35.308Z,9.719396
2023-03-06T01:29:35.269Z,9.719439
2023-03-06T01:30:35.255Z,9.719389
2023-03-06T01:31:35.315Z,9.719428
2023-03-06T01:32:35.307Z,9.719374
2023-03-06T01:33:35.215Z,9.719382
2023-03-06T01:34:35.224Z,9.719446
2023-03-06T01:35:35.302Z,9.719315
2023-03-06T01:36:35.217Z,9.719396
2023-03-06T01:37:35.231Z,9.719409
2023-03-06T01:38:35.176Z,9.719321
2023-03-06T01:39:35.162Z,9.719128
2023-03-06T01:40:35.157Z,9.719149
2023-03-06T01:41:35.158Z,9.719203
2023-03-06T01:42:35.162Z,9.719295
2023-03-06T01:43:35.139Z,9.719396
2023-03-06T01:44:35.180Z,9.719341
2023-03-06T01:45:35.177Z,9.719321
2023-03-06T01:46:35.109Z,9.719328
2023-03-06T01:47:35.084Z,9.719298
2023-03-06T01:48:35.379Z,9.719338
2023-03-06T01:49:35.080Z,9.719356
2023-03-06T01:50:35.058Z,9.719354
2023-03-06T01:51:35.082Z,9.719410
2023-03-06T01:52:35.026Z,9.719414
2023-03-06T01:53:35.080Z,9.719230
2023-03-06T01:54:35.019Z,9.719338
2023-03-06T01:55:35.020Z,9.719345
2023-03-06T01:56:35.014Z,9.719327
2023-03-06T01:57:34.983Z,9.719271
2023-03-06T01:58:34.987Z,9.719243
2023-03-06T01:59:34.995Z,9.719241
2023-03-06T02:00:34.961Z,9.719160
2023-03-06T02:01:34.947Z,9.719113
2023-03-06T02:02:35.017Z,9.719173
2023-03-06T02:03:34.930Z,9.719268
2023-03-06T02:04:34.953Z,9.719295
2023-03-06T02:05:34.921Z,9.719297
2023-03-06T02:06:34.892Z,9.719334
2023-03-06T02:07:34.894Z,9.719286
2023-03-06T02:08:34.881Z,9.719301
2023-03-06T02:09:34.891Z,9.719233
2023-03-06T02:10:34.896Z,9.719300
2023-03-06T02:11:34.909Z,9.719273
2023-03-06T02:12:34.848Z,9.719351
2023-03-06T02:13:34.860Z,9.719286
2023-03-06T02:14:34.818Z,9.719234
2023-03-06T02:15:34.808Z,9.719226
2023-03-06T02:16:34.831Z,9.719172
2023-03-06T02:17:34.785Z,9.719294
2023-03-06T02:18:34.814Z,9.719225
2023-03-06T02:19:34.776Z,9.719276
2023-03-06T02:20:34.784Z,9.719284
2023-03-06T02:21:34.764Z,9.719269
2023-03-06T02:22:34.771Z,9.719273
2023-03-06T02:23:34.758Z,9.719275
2023-03-06T02:24:34.723Z,9.719211
2023-03-06T02:25:34.708Z,9.719236
2023-03-06T02:26:34.718Z,9.719326
2023-03-06T02:27:34.712Z,9.719244
2023-03-06T02:28:34.690Z,9.719314
2023-03-06T02:29:34.704Z,9.719391
2023-03-06T02:30:34.903Z,9.719303
2023-03-06T02:31:34.659Z,9.719282
2023-03-06T02:32:34.730Z,9.719281
2023-03-06T02:33:34.672Z,9.719336
2023-03-06T02:34:34.646Z,9.719298
2023-03-06T02:35:34.681Z,9.719366
2023-03-06T02:36:34.603Z,9.719486
2023-03-06T02:37:34.627Z,9.719418
2023-03-06T02:38:34.584Z,9.719451
2023-03-06T02:39:34.627Z,9.719379
2023-03-06T02:40:34.562Z,9.719275
2023-03-06T02:41:34.570Z,9.719358
2023-03-06T02:42:34.568Z,9.719625
2023-03-06T02:43:34.559Z,9.719301
2023-03-06T02:44:34.576Z,9.719118
2023-03-06T02:45:34.523Z,9.718987
2023-03-06T02:46:34.562Z,9.719005
2023-03-06T02:47:34.521Z,9.719134
2023-03-06T02:48:34.497Z,9.719272
2023-03-06T02:49:34.483Z,9.719260
2023-03-06T02:50:34.474Z,9.719208
2023-03-06T02:51:34.471Z,9.719236
2023-03-06T02:52:34.461Z,9.719227
2023-03-06T02:53:34.437Z,9.719363
2023-03-06T02:54:34.447Z,9.719419
2023-03-06T02:55:34.435Z,9.719224
2023-03-06T02:56:34.439Z,9.719128
2023-03-06T02:57:34.423Z,9.719148
2023-03-06T02:58:34.410Z,9.719184
2023-03-06T02:59:34.383Z,9.719212
2023-03-06T03:00:34.374Z,9.719271
2023-03-06T03:01:34.433Z,9.719332
2023-03-06T03:02:34.343Z,9.719284
2023-03-06T03:03:34.364Z,9.719247
2023-03-06T03:04:34.384Z,9.719284
2023-03-06T03:05:34.325Z,9.719247
2023-03-06T03:06:34.324Z,9.719200
2023-03-06T03:07:34.293Z,9.719162
2023-03-06T03:08:34.285Z,9.719170
2023-03-06T03:09:34.311Z,9.719242
2023-03-06T03:10:34.267Z,9.719271
2023-03-06T03:11:34.251Z,9.719350
2023-03-06T03:12:34.250Z,9.719269
2023-03-06T03:13:34.234Z,9.719242
2023-03-06T03:14:34.253Z,9.718991
2023-03-06T03:15:34.288Z,9.719051
2023-03-06T03:16:34.210Z,9.719051
2023-03-06T03:17:34.197Z,9.719051
2023-03-06T03:18:34.188Z,9.719051
2023-03-06T03:19:34.175Z,9.719051
2023-03-06T03:20:34.191Z,9.719051
2023-03-06T03:21:34.157Z,9.719051
2023-03-06T03:22:34.149Z,9.719051
2023-03-06T03:23:34.132Z,9.719051
2023-03-06T03:24:34.205Z,9.719051
2023-03-06T03:25:34.113Z,9.719051
2023-03-06T03:26:34.118Z,9.719051
2023-03-06T03:27:34.094Z,9.719051
2023-03-06T03:28:34.092Z,9.719051
2023-03-06T03:29:34.096Z,9.719051
2023-03-06T03:30:34.070Z,9.719051
2023-03-06T03:31:34.105Z,9.719051
2023-03-06T03:32:34.156Z,9.719051
2023-03-06T03:33:34.052Z,9.719360
2023-03-06T03:34:34.032Z,9.719251
2023-03-06T03:35:34.050Z,9.719376
2023-03-06T03:36:34.051Z,9.719906
2023-03-06T03:37:34.027Z,9.719459
2023-03-06T03:38:33.996Z,9.719378
2023-03-06T03:39:33.985Z,9.719308
2023-03-06T03:40:33.988Z,9.719458
2023-03-06T03:41:34.006Z,9.719028
2023-03-06T03:42:33.982Z,9.718946
2023-03-06T03:43:34.945Z,9.718879
2023-03-06T03:44:33.965Z,9.718879
2023-03-06T03:45:33.927Z,9.719360
2023-03-06T03:46:34.959Z,9.718686
2023-03-06T03:47:33.931Z,9.718946
2023-03-06T03:48:33.905Z,9.719165
2023-03-06T03:49:33.906Z,9.718987
2023-03-06T03:50:33.879Z,9.719112
2023-03-06T03:51:33.872Z,9.719249
2023-03-06T03:52:33.855Z,9.718928
2023-03-06T03:53:33.849Z,9.719317
2023-03-06T03:54:33.861Z,9.719189
2023-03-06T03:55:33.845Z,9.719244
2023-03-06T03:56:33.813Z,9.719202
2023-03-06T03:57:33.801Z,9.719007
2023-03-06T03:58:33.803Z,9.719059
2023-03-06T03:59:33.775Z,9.719213
2023-03-06T04:00:33.791Z,9.719206
2023-03-06T04:01:33.826Z,9.719270
2023-03-06T04:02:33.769Z,9.719295
2023-03-06T04:03:33.758Z,9.719427
2023-03-06T04:04:33.774Z,9.719395
2023-03-06T04:05:33.730Z,9.719339
2023-03-06T04:06:33.707Z,9.719208
2023-03-06T04:07:33.715Z,9.719065
2023-03-06T04:08:33.732Z,9.719130
2023-03-06T04:09:33.680Z,9.719094
2023-03-06T04:10:33.670Z,9.719269
2023-03-06T04:11:33.681Z,9.719000
2023-03-06T04:12:33.653Z,9.719138
2023-03-06T04:13:33.661Z,9.718988
2023-03-06T04:14:33.623Z,9.719230
2023-03-06T04:15:33.626Z,9.719111
2023-03-06T04:16:33.704Z,9.719207
2023-03-06T04:17:33.610Z,9.719337
2023-03-06T04:18:33.608Z,9.719481
2023-03-06T04:19:33.602Z,9.719513
2023-03-06T04:20:33.585Z,9.719522
2023-03-06T04:21:33.575Z,9.719502
2023-03-06T04:22:33.574Z,9.719361
2023-03-06T04:23:33.541Z,9.719608
2023-03-06T04:24:33.546Z,9.719426
2023-03-06T04:25:33.531Z,9.719419
2023-03-06T04:26:33.555Z,9.719671
2023-03-06T04:27:33.508Z,9.719558
2023-03-06T04:28:33.508Z,9.719316
2023-03-06T04:29:33.492Z,9.719286
2023-03-06T04:30:34.500Z,9.719221
2023-03-06T04:31:33.535Z,9.719317
2023-03-06T04:32:33.494Z,9.719413
2023-03-06T04:33:33.451Z,9.719404
2023-03-06T04:34:33.449Z,9.719288
2023-03-06T04:35:33.485Z,9.719406
2023-03-06T04:36:33.433Z,9.719535
2023-03-06T04:37:33.441Z,9.719418
2023-03-06T04:38:33.462Z,9.719353
2023-03-06T04:39:33.414Z,9.719331
2023-03-06T04:40:33.403Z,9.719394
2023-03-06T04:41:33.395Z,9.719356
2023-03-06T04:42:33.379Z,9.719366
2023-03-06T04:43:33.372Z,9.719401
2023-03-06T04:44:33.375Z,9.719346
2023-03-06T04:45:33.410Z,9.719444
2023-03-06T04:46:33.348Z,9.719375
2023-03-06T04:47:33.324Z,9.719393
2023-03-06T04:48:33.310Z,9.719359
2023-03-06T04:49:33.309Z,9.719464
2023-03-06T04:50:33.308Z,9.719522
2023-03-06T04:51:33.308Z,9.719517
2023-03-06T04:52:33.299Z,9.719439
2023-03-06T04:53:33.275Z,9.719423
2023-03-06T04:54:33.260Z,9.719505
2023-03-06T04:55:33.268Z,9.719420
2023-03-06T04:56:33.246Z,9.719455
2023-03-06T04:57:33.262Z,9.719283
2023-03-06T04:58:33.225Z,9.719300
2023-03-06T04:59:34.210Z,9.719317
2023-03-06T05:00:33.214Z,9.719378
2023-03-06T05:01:33.198Z,9.719337
2023-03-06T05:02:33.283Z,9.719297
2023-03-06T05:03:33.183Z,9.719389
2023-03-06T05:04:33.157Z,9.719259
2023-03-06T05:05:33.149Z,9.719315
2023-03-06T05:06:33.153Z,9.719276
2023-03-06T05:07:33.115Z,9.719349
2023-03-06T05:08:33.107Z,9.719257
2023-03-06T05:09:33.109Z,9.719419
2023-03-06T05:10:33.119Z,9.719510
2023-03-06T05:11:33.106Z,9.719091
2023-03-06T05:12:33.070Z,9.719117
2023-03-06T05:13:33.074Z,9.719289
2023-03-06T05:14:33.053Z,9.719376
2023-03-06T05:15:33.070Z,9.719133
2023-03-06T05:16:33.104Z,9.719112
2023-03-06T05:17:33.026Z,9.719193
2023-03-06T05:18:33.013Z,9.719328
2023-03-06T05:19:33.006Z,9.719376
2023-03-06T05:20:33.007Z,9.719414
2023-03-06T05:21:32.981Z,9.719548
2023-03-06T05:22:32.954Z,9.719460
2023-03-06T05:23:32.961Z,9.719480
2023-03-06T05:24:32.948Z,9.719335
2023-03-06T05:25:32.968Z,9.719386
2023-03-06T05:26:32.923Z,9.718951
2023-03-06T05:27:32.926Z,9.719111
2023-03-06T05:28:32.923Z,9.719250
2023-03-06T05:29:32.886Z,9.719254
2023-03-06T05:30:32.893Z,9.719213
2023-03-06T05:31:32.946Z,9.719180
2023-03-06T05:32:35.390Z,9.719216
2023-03-06T05:33:33.864Z,9.719189
2023-03-06T05:34:32.873Z,9.719224
2023-03-06T05:35:32.922Z,9.719260
2023-03-06T05:36:32.834Z,9.719262
2023-03-06T05:37:32.839Z,9.719242
2023-03-06T05:38:32.830Z,9.719241
2023-03-06T05:39:32.816Z,9.719266
2023-03-06T05:40:32.800Z,9.719257
2023-03-06T05:41:33.804Z,9.719254
2023-03-06T05:42:32.773Z,9.719234
2023-03-06T05:43:32.765Z,9.719245
2023-03-06T05:44:32.765Z,9.719227
2023-03-06T05:45:32.805Z,9.719196
2023-03-06T05:46:32.747Z,9.719229
2023-03-06T05:47:32.730Z,9.719227
2023-03-06T05:48:32.716Z,9.719276
2023-03-06T05:49:32.722Z,9.719283
2023-03-06T05:50:32.708Z,9.719239
2023-03-06T05:51:32.681Z,9.719253
2023-03-06T05:52:32.673Z,9.719220
2023-03-06T05:53:32.697Z,9.719377
2023-03-06T05:54:32.682Z,9.719267
2023-03-06T05:55:32.643Z,9.719202
2023-03-06T05:56:32.633Z,9.719197
2023-03-06T05:57:32.630Z,9.719119
2023-03-06T05:58:32.644Z,9.719369
2023-03-06T05:59:32.604Z,9.719282
2023-03-06T06:00:32.596Z,9.719350
2023-03-06T06:01:32.591Z,9.719336
2023-03-06T06:02:32.615Z,9.719302
2023-03-06T06:03:32.612Z,9.719211
2023-03-06T06:04:32.674Z,9.719253
2023-03-06T06:05:32.554Z,9.719232
2023-03-06T06:06:32.538Z,9.719193
2023-03-06T06:07:32.532Z,9.719189
2023-03-06T06:08:32.510Z,9.719295
2023-03-06T06:09:33.521Z,9.719275
2023-03-06T06:10:32.486Z,9.719312
2023-03-06T06:11:33.510Z,9.719328
2023-03-06T06:12:32.508Z,9.719303
2023-03-06T06:13:32.467Z,9.719291
2023-03-06T06:14:32.463Z,9.719296
2023-03-06T06:15:32.461Z,9.719267
2023-03-06T06:16:32.450Z,9.719322
2023-03-06T06:17:32.446Z,9.719247
2023-03-06T06:18:32.418Z,9.719356
2023-03-06T06:19:32.410Z,9.719387
2023-03-06T06:20:32.418Z,9.719296
2023-03-06T06:21:32.406Z,9.719323
2023-03-06T06:22:32.395Z,9.719283
2023-03-06T06:23:32.378Z,9.719197
2023-03-06T06:24:33.363Z,9.719149
2023-03-06T06:25:32.366Z,9.719318
2023-03-06T06:26:32.360Z,9.719203
2023-03-06T06:27:32.337Z,9.719016
2023-03-06T06:28:32.346Z,9.719040
2023-03-06T06:29:32.316Z,9.719002
2023-03-06T06:30:32.331Z,9.718952
2023-03-06T06:31:32.379Z,9.718706
2023-03-06T06:32:32.340Z,9.718864
2023-03-06T06:33:32.298Z,9.718987
2023-03-06T06:34:32.268Z,9.718966
2023-03-06T06:35:32.307Z,9.719051
2023-03-06T06:36:32.268Z,9.719115
2023-03-06T06:37:32.240Z,9.718916
2023-03-06T06:38:32.224Z,9.718722
2023-03-06T06:39:32.222Z,9.718910
2023-03-06T06:40:32.214Z,9.719130
2023-03-06T06:41:56.909Z,9.719164
2023-03-06T06:42:37.161Z,9.719117
2023-03-06T06:43:34.186Z,9.719005
2023-03-06T06:44:32.177Z,9.719209
2023-03-06T06:45:32.153Z,9.719018
2023-03-06T06:47:19.293Z,9.719093
2023-03-06T06:47:34.267Z,9.719069
2023-03-06T06:48:32.130Z,9.719048
2023-03-06T06:49:32.149Z,9.719006
2023-03-06T06:50:32.128Z,9.719305
2023-03-06T06:51:32.117Z,9.719208
2023-03-06T06:52:32.089Z,9.719278
2023-03-06T06:53:32.087Z,9.719021
2023-03-06T06:54:32.092Z,9.719076
2023-03-06T06:55:32.062Z,9.719084
2023-03-06T06:56:32.058Z,9.719118
2023-03-06T06:57:32.072Z,9.719066
2023-03-06T06:58:32.031Z,9.719175
2023-03-06T06:59:32.021Z,9.719403
2023-03-06T07:00:33.092Z,9.719435
2023-03-06T07:01:32.008Z,9.719321
2023-03-06T07:02:32.006Z,9.719083
2023-03-06T07:03:32.005Z,9.719139
2023-03-06T07:04:31.992Z,9.719296
2023-03-06T07:05:31.996Z,9.719208
2023-03-06T07:06:31.955Z,9.719198
2023-03-06T07:07:31.961Z,9.719336
2023-03-06T07:08:31.946Z,9.719316
2023-03-06T07:09:31.942Z,9.719311
2023-03-06T07:10:31.949Z,9.719116
2023-03-06T07:11:31.901Z,9.719214
2023-03-06T07:12:31.906Z,9.719175
2023-03-06T07:13:31.898Z,9.719275
2023-03-06T07:14:31.904Z,9.719147
2023-03-06T07:15:31.879Z,9.719197
2023-03-06T07:16:31.855Z,9.719177
2023-03-06T07:17:31.877Z,9.719307
2023-03-06T07:18:31.847Z,9.719179
2023-03-06T07:19:31.820Z,9.719151
2023-03-06T07:20:31.814Z,9.719177
2023-03-06T07:21:31.806Z,9.719138
2023-03-06T07:22:41.445Z,9.719127
2023-03-06T07:23:33.781Z,9.719190
2023-03-06T07:25:04.893Z,9.719119
2023-03-06T07:25:31.767Z,9.719157
2023-03-06T07:26:34.521Z,9.719222
2023-03-06T07:27:32.783Z,9.719149
2023-03-06T07:28:42.990Z,9.719220
2023-03-06T07:29:33.778Z,9.719192
2023-03-06T07:30:31.753Z,9.719170
2023-03-06T07:31:31.754Z,9.719135
2023-03-06T07:32:31.776Z,9.719118
2023-03-06T07:33:31.694Z,9.719212
2023-03-06T07:34:31.710Z,9.719218
2023-03-06T07:35:31.686Z,9.719213
2023-03-06T07:36:31.678Z,9.719255
2023-03-06T07:37:31.679Z,9.719182
2023-03-06T07:38:31.648Z,9.719161
2023-03-06T07:39:31.655Z,9.719114
2023-03-06T07:40:31.642Z,9.719136
2023-03-06T07:41:31.668Z,9.719061
2023-03-06T07:42:31.608Z,9.718964
2023-03-06T07:43:31.602Z,9.718893
2023-03-06T07:44:31.634Z,9.719059
2023-03-06T07:45:31.615Z,9.718865
2023-03-06T07:46:31.640Z,9.718937
2023-03-06T07:47:31.600Z,9.719257
2023-03-06T07:48:31.572Z,9.719312
2023-03-06T07:49:31.551Z,9.719229
2023-03-06T07:50:31.542Z,9.719089
2023-03-06T07:51:31.553Z,9.719068
2023-03-06T07:52:31.533Z,9.719211
2023-03-06T07:53:31.524Z,9.719407
2023-03-06T07:54:31.487Z,9.719109
2023-03-06T07:55:31.506Z,9.719092
2023-03-06T07:56:31.503Z,9.718925
2023-03-06T07:57:31.469Z,9.718928
2023-03-06T07:58:31.533Z,9.719205
2023-03-06T07:59:31.470Z,9.719439
2023-03-06T08:00:31.454Z,9.719401
2023-03-06T08:01:31.447Z,9.718883
2023-03-06T08:02:31.441Z,9.719001
2023-03-06T08:03:31.462Z,9.719162
2023-03-06T08:04:31.406Z,9.718960
2023-03-06T08:05:31.402Z,9.719015
2023-03-06T08:06:31.389Z,9.718934
2023-03-06T08:07:31.405Z,9.718971
2023-03-06T08:08:31.355Z,9.718720
2023-03-06T08:09:31.382Z,9.718688
2023-03-06T08:10:31.352Z,9.718507
2023-03-06T08:11:31.359Z,9.718745
2023-03-06T08:12:31.311Z,9.718824
2023-03-06T08:13:31.323Z,9.718922
2023-03-06T08:14:31.299Z,9.719009
2023-03-06T08:15:31.355Z,9.719048
2023-03-06T08:16:31.314Z,9.719156
2023-03-06T08:17:31.262Z,9.719019
2023-03-06T08:18:31.278Z,9.719043
2023-03-06T08:19:31.268Z,9.719088
2023-03-06T08:20:31.239Z,9.719080
2023-03-06T08:21:31.246Z,9.719146
2023-03-06T08:22:31.220Z,9.719209
2023-03-06T08:23:31.223Z,9.719195
2023-03-06T08:24:31.237Z,9.719164
2023-03-06T08:25:31.196Z,9.719225
2023-03-06T08:26:31.198Z,9.719267
2023-03-06T08:27:31.170Z,9.719368
2023-03-06T08:28:31.195Z,9.719262
2023-03-06T08:29:32.338Z,9.719163
2023-03-06T08:30:31.145Z,9.719168
2023-03-06T08:31:31.172Z,9.719246
2023-03-06T08:32:32.203Z,9.719303
2023-03-06T08:33:31.122Z,9.719231
2023-03-06T08:34:31.106Z,9.719254
2023-03-06T08:35:31.144Z,9.719261
2023-03-06T08:36:31.116Z,9.719265
2023-03-06T08:37:31.137Z,9.719151
2023-03-06T08:38:31.067Z,9.719146
2023-03-06T08:39:31.075Z,9.719166
2023-03-06T08:40:31.086Z,9.719154
2023-03-06T08:41:31.043Z,9.719225
2023-03-06T08:42:31.049Z,9.719222
2023-03-06T08:43:31.026Z,9.719136
2023-03-06T08:44:31.059Z,9.719171
2023-03-06T08:45:31.090Z,9.719161
2023-03-06T08:46:31.005Z,9.719202
2023-03-06T08:47:30.995Z,9.719224
2023-03-06T08:48:31.060Z,9.719233
2023-03-06T08:49:30.990Z,9.719193
2023-03-06T08:50:30.961Z,9.719103
2023-03-06T08:51:30.987Z,9.719142
2023-03-06T08:52:30.940Z,9.719194
2023-03-06T08:53:42.560Z,9.719249
2023-03-06T08:54:32.936Z,9.719133
2023-03-06T08:55:30.913Z,9.719047
2023-03-06T08:56:30.918Z,9.719002
2023-03-06T08:57:30.898Z,9.719093
2023-03-06T08:58:30.892Z,9.719145
2023-03-06T08:59:30.875Z,9.719131
2023-03-06T09:00:30.895Z,9.719150
2023-03-06T09:01:30.915Z,9.719069
2023-03-06T09:02:30.849Z,9.719069
2023-03-06T09:03:30.842Z,9.718949
2023-03-06T09:04:30.909Z,9.719002
2023-03-06T09:05:30.826Z,9.719007
2023-03-06T09:06:30.844Z,9.718870
2023-03-06T09:07:30.800Z,9.718941
2023-03-06T09:08:30.786Z,9.718964
2023-03-06T09:09:30.779Z,9.718804
2023-03-06T09:10:30.800Z,9.718828
2023-03-06T09:11:30.784Z,9.718838
2023-03-06T09:12:34.703Z,9.718977
2023-03-06T09:13:32.720Z,9.719039
2023-03-06T09:14:30.716Z,9.718983
2023-03-06T09:15:30.744Z,9.719007
2023-03-06T09:16:30.732Z,9.719058
2023-03-06T09:17:30.780Z,9.719056
2023-03-06T09:18:30.678Z,9.719093
2023-03-06T09:19:30.691Z,9.719122
2023-03-06T09:20:30.661Z,9.719188
2023-03-06T09:21:30.665Z,9.719125
2023-03-06T09:22:31.662Z,9.719096
2023-03-06T09:23:30.632Z,9.719136
2023-03-06T09:24:30.650Z,9.719203
2023-03-06T09:25:30.633Z,9.719234
2023-03-06T09:26:45.156Z,9.719247
2023-03-06T09:27:31.618Z,9.719195
2023-03-06T09:28:30.602Z,9.719204
2023-03-06T09:29:30.599Z,9.719178
2023-03-06T09:30:30.597Z,9.719140
2023-03-06T09:31:30.572Z,9.719218
2023-03-06T09:32:30.575Z,9.719176
2023-03-06T09:33:30.567Z,9.719150
2023-03-06T09:34:30.530Z,9.719052
2023-03-06T09:35:30.620Z,9.719137
2023-03-06T09:36:30.525Z,9.719130
2023-03-06T09:37:30.536Z,9.719170
2023-03-06T09:38:30.526Z,9.719139
2023-03-06T09:39:30.493Z,9.719059
2023-03-06T09:40:30.488Z,9.719094
2023-03-06T09:41:30.482Z,9.719075
2023-03-06T09:42:30.478Z,9.719151
2023-03-06T09:43:30.454Z,9.719095
2023-03-06T09:44:30.442Z,9.719146
2023-03-06T09:45:30.432Z,9.719218
2023-03-06T09:46:30.510Z,9.719253
2023-03-06T09:47:30.434Z,9.719226
2023-03-06T09:48:30.404Z,9.719038
2023-03-06T09:49:30.373Z,9.719097
2023-03-06T09:50:30.367Z,9.719192
2023-03-06T09:51:30.379Z,9.719097
2023-03-06T09:52:30.357Z,9.718979
2023-03-06T09:53:31.363Z,9.719234
2023-03-06T09:54:30.347Z,9.719092
2023-03-06T09:55:30.313Z,9.719080
2023-03-06T09:56:30.301Z,9.718985
2023-03-06T09:57:30.297Z,9.718932
2023-03-06T09:58:30.292Z,9.718902
2023-03-06T09:59:30.297Z,9.718885
2023-03-06T10:00:30.286Z,9.718948
2023-03-06T10:01:30.252Z,9.718985
2023-03-06T10:02:30.357Z,9.719108
2023-03-06T10:03:30.293Z,9.718981
2023-03-06T10:04:30.238Z,9.719052
2023-03-06T10:05:30.211Z,9.719268
2023-03-06T10:06:30.260Z,9.719248
2023-03-06T10:07:30.189Z,9.719290
2023-03-06T10:08:30.194Z,9.719234
2023-03-06T10:09:30.190Z,9.719268
2023-03-06T10:10:30.189Z,9.719288
2023-03-06T10:11:30.153Z,9.719360
2023-03-06T10:12:30.229Z,9.719520
2023-03-06T10:13:30.146Z,9.719622
2023-03-06T10:14:30.122Z,9.719337
2023-03-06T10:15:30.212Z,9.719342
2023-03-06T10:16:30.103Z,9.719443
2023-03-06T10:17:30.098Z,9.719364
2023-03-06T10:18:30.079Z,9.719343
2023-03-06T10:19:30.079Z,9.719336
2023-03-06T10:20:30.058Z,9.719230
2023-03-06T10:21:30.080Z,9.719269
2023-03-06T10:22:30.076Z,9.719224
2023-03-06T10:23:30.035Z,9.719246
2023-03-06T10:24:30.037Z,9.719244
2023-03-06T10:25:30.016Z,9.719245
2023-03-06T10:26:30.162Z,9.719259
2023-03-06T10:27:29.999Z,9.719323
2023-03-06T10:28:29.985Z,9.719414
2023-03-06T10:29:29.989Z,9.719483
2023-03-06T10:30:29.984Z,9.719357
2023-03-06T10:31:30.006Z,9.719368
2023-03-06T10:32:39.546Z,9.719386
2023-03-06T10:33:31.962Z,9.719306
2023-03-06T10:34:29.973Z,9.719226
2023-03-06T10:35:30.751Z,9.719205
2023-03-06T10:36:30.937Z,9.719284
2023-03-06T10:37:31.638Z,9.719282
2023-03-06T10:38:29.903Z,9.719288
2023-03-06T10:39:29.892Z,9.719202
2023-03-06T10:40:29.876Z,9.719161
2023-03-06T10:41:29.882Z,9.719256
2023-03-06T10:42:29.844Z,9.719325
2023-03-06T10:43:30.872Z,9.719335
2023-03-06T10:44:29.845Z,9.719197
2023-03-06T10:45:35.323Z,9.719211
2023-03-06T10:46:30.840Z,9.719190
2023-03-06T10:47:29.811Z,9.719153
2023-03-06T10:48:29.803Z,9.719235
2023-03-06T10:49:29.908Z,9.719232
2023-03-06T10:50:29.773Z,9.719119
2023-03-06T10:51:29.775Z,9.719177
2023-03-06T10:52:29.769Z,9.719189
2023-03-06T10:53:29.757Z,9.719268
2023-03-06T10:54:29.767Z,9.719213
2023-03-06T10:55:29.753Z,9.719202
2023-03-06T10:56:29.734Z,9.719081
2023-03-06T10:57:29.763Z,9.719162
2023-03-06T10:58:29.707Z,9.719309
2023-03-06T10:59:29.719Z,9.719232
2023-03-06T11:00:29.684Z,9.719205
2023-03-06T11:01:29.686Z,9.719174
2023-03-06T11:02:29.681Z,9.719092
2023-03-06T11:03:29.655Z,9.719137
2023-03-06T11:04:29.715Z,9.719172
2023-03-06T11:05:29.644Z,9.719276
2023-03-06T11:06:29.648Z,9.719392
2023-03-06T11:07:29.634Z,9.719246
2023-03-06T11:08:30.410Z,9.719362
2023-03-06T11:09:29.583Z,9.719314
2023-03-06T11:10:29.579Z,9.719315
2023-03-06T11:11:37.419Z,9.719162
2023-03-06T11:12:31.560Z,9.719252
2023-03-06T11:13:29.560Z,9.719459
2023-03-06T11:14:29.563Z,9.719392
2023-03-06T11:15:29.533Z,9.719211
2023-03-06T11:16:29.583Z,9.719182
2023-03-06T11:17:29.508Z,9.719249
2023-03-06T11:18:29.500Z,9.719316
2023-03-06T11:19:29.490Z,9.719342
2023-03-06T11:20:41.295Z,9.719348
2023-03-06T11:21:31.834Z,9.719178
2023-03-06T11:22:30.464Z,9.719103
2023-03-06T11:23:29.443Z,9.719060
2023-03-06T11:24:29.457Z,9.719227
2023-03-06T11:25:29.426Z,9.719043
2023-03-06T11:26:29.407Z,9.719259
2023-03-06T11:27:29.409Z,9.719099
2023-03-06T11:28:29.396Z,9.718941
2023-03-06T11:29:29.828Z,9.718816
2023-03-06T11:30:30.381Z,9.719097
2023-03-06T11:31:29.417Z,9.719094
2023-03-06T11:32:29.388Z,9.719240
2023-03-06T11:33:29.334Z,9.718969
2023-03-06T11:34:29.339Z,9.719151
2023-03-06T11:35:29.342Z,9.719170
2023-03-06T11:36:29.335Z,9.719073
2023-03-06T11:37:29.315Z,9.718604
2023-03-06T11:38:29.459Z,9.718849
2023-03-06T11:39:29.294Z,9.719205
2023-03-06T11:40:29.306Z,9.719288
2023-03-06T11:41:29.261Z,9.719433
2023-03-06T11:42:29.289Z,9.719401
2023-03-06T11:43:29.243Z,9.719299
2023-03-06T11:44:29.244Z,9.719263